Terminal Aerodrome Forecast
Issued by NWS Mt. Holly, NJ

Home | Current Version | Previous Version | Text Only | Print | Product List | Glossary On
Versions: 1 2 3 4 5 6 7 8 9 10 11 12 13 14 15 16 17 18 19 20 21 22 23 24
878
FTUS41 KPHI 172042 AAB
TAFTTN
TAF AMD
KTTN 172042Z 1721/1818 10004KT P6SM -SHRA OVC012
     FM172200 10006KT 4SM -SHRA BR OVC008
     FM180000 09004KT 2SM -SHRA BR OVC005
     FM180200 VRB03KT 1SM -DZ BR OVC003
     FM181200 VRB03KT 3SM BR BKN005 OVC015
     FM181600 33006KT P6SM BKN015=

USA.gov is the U.S. government's official web portal to all federal, state and local government web resources and services.